Heshbon Park, Pennsylvania
Current Conditions -  °F | °C
As of 3:54 PM on Sunday 21 Dec 2014 (Local Time) from KIPT Reporting Station
Few Clouds Few Clouds  
Wind Chill: 28°   Ceiling: Unl
Heat Index: 34°   Visibility: 10mi
Dew Point: 20°   Wind: 7mph
Humidity: 56%   Direction: 240°WSW
Pressure: 30.28"   Gusts: NA
Location:  41.246°N, 77.0167°W
Report Text: KIPT 212054Z 24006KT 10SM FEW050 01/M07 A3028 RMK AO2 SLP261 T00111067 55007
Loading
Personal Weather Stations






























Interactive Weather Map New forecast layout! Learn more

10-Day Weather Forecast

Advertisements
Track Severe Weather on mobile